createdAt,value
2018-10-17T00:00:00.135Z,19.57
2018-10-17T00:02:26.123Z,19.51
2018-10-17T00:04:52.163Z,19.50
2018-10-17T00:07:18.174Z,19.52
2018-10-17T00:09:44.257Z,19.43
2018-10-17T00:12:10.254Z,19.37
2018-10-17T00:14:37.561Z,19.38
2018-10-17T00:17:04.494Z,19.34
2018-10-17T00:19:30.480Z,19.36
2018-10-17T00:21:56.486Z,19.33
2018-10-17T00:24:22.527Z,19.26
2018-10-17T00:26:48.574Z,19.29
2018-10-17T00:29:15.264Z,19.28
2018-10-17T00:31:41.257Z,19.25
2018-10-17T00:34:07.345Z,19.04
2018-10-17T00:36:33.374Z,18.99
2018-10-17T00:38:59.368Z,19.12
2018-10-17T00:43:57.630Z,19.10
2018-10-17T00:46:23.647Z,19.15
2018-10-17T00:48:49.706Z,19.05
2018-10-17T00:51:15.744Z,18.92
2018-10-17T00:53:41.754Z,18.87
2018-10-17T00:56:07.861Z,18.86
2018-10-17T00:58:33.892Z,18.72
2018-10-17T01:00:59.935Z,18.71
2018-10-17T01:03:25.995Z,18.67
2018-10-17T01:05:52.051Z,18.61
2018-10-17T01:08:18.068Z,18.69
2018-10-17T01:10:44.154Z,18.79
2018-10-17T01:13:10.219Z,18.79
2018-10-17T01:15:36.787Z,18.94
2018-10-17T01:18:03.101Z,19.07
2018-10-17T01:20:29.183Z,19.08
2018-10-17T01:22:55.305Z,18.95
2018-10-17T01:25:21.290Z,18.91
2018-10-17T01:27:47.312Z,18.81
2018-10-17T01:30:13.399Z,18.84
2018-10-17T01:32:39.414Z,18.69
2018-10-17T01:35:05.485Z,18.78
2018-10-17T01:37:31.526Z,18.73
2018-10-17T01:39:57.539Z,18.83
2018-10-17T01:42:24.354Z,18.82
2018-10-17T01:44:50.390Z,18.92
2018-10-17T01:47:16.841Z,18.87
2018-10-17T01:49:42.838Z,18.82
2018-10-17T01:52:08.879Z,18.93
2018-10-17T01:54:35.059Z,18.76
2018-10-17T01:57:01.150Z,18.80
2018-10-17T01:59:28.301Z,18.84
2018-10-17T02:01:54.530Z,18.63
2018-10-17T02:04:20.609Z,18.60
2018-10-17T02:06:46.635Z,18.62
2018-10-17T02:09:12.646Z,18.61
2018-10-17T02:11:38.742Z,18.61
2018-10-17T02:14:04.749Z,18.65
2018-10-17T02:19:02.471Z,18.73
2018-10-17T02:21:28.509Z,18.61
2018-10-17T02:23:54.525Z,18.62
2018-10-17T02:26:20.552Z,18.71
2018-10-17T02:28:46.681Z,18.63
2018-10-17T02:31:12.818Z,18.59
2018-10-17T02:33:38.776Z,18.54
2018-10-17T02:36:04.889Z,18.49
2018-10-17T02:38:30.876Z,18.35
2018-10-17T02:40:57.016Z,18.26
2018-10-17T02:43:23.478Z,18.39
2018-10-17T02:45:49.459Z,18.33
2018-10-17T02:48:15.507Z,18.39
2018-10-17T02:50:41.526Z,18.37
2018-10-17T02:53:07.594Z,18.37
2018-10-17T03:16:33.626Z,18.08
2018-10-17T03:29:04.862Z,17.93
2018-10-17T03:31:31.053Z,17.99
2018-10-17T03:33:57.018Z,18.08
2018-10-17T03:36:23.045Z,18.10
2018-10-17T03:38:49.858Z,18.12
2018-10-17T03:43:48.376Z,18.04
2018-10-17T03:46:14.411Z,18.08
2018-10-17T03:51:12.565Z,17.96
2018-10-17T03:53:38.606Z,18.03
2018-10-17T03:56:04.598Z,17.98
2018-10-17T03:58:30.625Z,17.91
2018-10-17T04:00:56.785Z,17.96
2018-10-17T04:03:22.882Z,17.88
2018-10-17T04:05:49.025Z,17.97
2018-10-17T04:08:15.150Z,18.00
2018-10-17T04:10:41.234Z,18.03
2018-10-17T04:13:07.383Z,18.05
2018-10-17T04:15:33.402Z,17.95
2018-10-17T04:17:59.531Z,18.00
2018-10-17T04:20:25.617Z,17.90
2018-10-17T04:22:51.670Z,17.92
2018-10-17T04:25:17.794Z,17.86
2018-10-17T04:27:43.838Z,17.90
2018-10-17T04:30:09.908Z,18.01
2018-10-17T04:32:35.979Z,18.03
2018-10-17T04:35:02.088Z,18.07
2018-10-17T04:37:28.130Z,18.07
2018-10-17T04:39:54.196Z,18.11
2018-10-17T04:42:20.291Z,17.99
2018-10-17T04:44:46.385Z,17.96
2018-10-17T04:47:12.470Z,17.95
2018-10-17T04:49:38.489Z,17.81
2018-10-17T04:52:04.612Z,17.79
2018-10-17T04:54:31.700Z,17.90
2018-10-17T04:56:57.802Z,17.90
2018-10-17T04:59:23.912Z,17.81
2018-10-17T05:01:49.959Z,17.81
2018-10-17T05:04:16.015Z,17.76
2018-10-17T05:06:42.111Z,17.78
2018-10-17T05:09:08.117Z,17.73
2018-10-17T05:11:34.246Z,17.82
2018-10-17T05:14:00.282Z,17.82
2018-10-17T05:16:26.398Z,17.80
2018-10-17T05:18:52.449Z,17.92
2018-10-17T05:21:18.498Z,18.06
2018-10-17T05:23:44.609Z,18.12
2018-10-17T05:26:11.686Z,18.21
2018-10-17T05:28:37.767Z,18.17
2018-10-17T05:31:03.806Z,18.17
2018-10-17T05:33:29.922Z,18.15
2018-10-17T05:35:55.992Z,18.08
2018-10-17T05:38:23.337Z,18.00
2018-10-17T05:40:49.411Z,18.04
2018-10-17T05:43:15.534Z,18.01
2018-10-17T05:45:41.551Z,17.89
2018-10-17T05:48:07.678Z,18.02
2018-10-17T05:50:33.784Z,18.11
2018-10-17T05:52:59.889Z,18.02
2018-10-17T05:55:25.956Z,17.96
2018-10-17T05:57:52.113Z,17.97
2018-10-17T06:00:18.231Z,18.03
2018-10-17T06:02:44.354Z,18.06
2018-10-17T06:05:10.586Z,18.12
2018-10-17T06:07:36.587Z,18.11
2018-10-17T06:10:02.705Z,18.15
2018-10-17T06:12:28.757Z,18.12
2018-10-17T06:14:54.813Z,18.23
2018-10-17T06:17:20.977Z,18.36
2018-10-17T06:19:47.015Z,18.57
2018-10-17T06:22:13.060Z,18.53
2018-10-17T06:24:39.078Z,18.51
2018-10-17T06:27:05.079Z,18.61
2018-10-17T06:29:31.134Z,18.67
2018-10-17T06:31:57.233Z,18.64
2018-10-17T06:34:23.402Z,18.79
2018-10-17T06:36:49.372Z,18.97
2018-10-17T06:39:15.436Z,19.15
2018-10-17T06:41:41.590Z,19.36
2018-10-17T06:44:07.783Z,19.63
2018-10-17T06:46:33.823Z,19.79
2018-10-17T06:48:59.900Z,19.95
2018-10-17T06:51:25.968Z,20.09
2018-10-17T06:53:52.127Z,20.15
2018-10-17T06:56:18.300Z,20.22
2018-10-17T06:58:44.388Z,20.44
2018-10-17T07:01:10.558Z,20.85
2018-10-17T07:03:36.611Z,21.06
2018-10-17T07:06:02.800Z,21.21
2018-10-17T07:08:28.949Z,21.49
2018-10-17T07:10:55.802Z,21.57
2018-10-17T07:15:54.388Z,21.75
2018-10-17T07:18:20.743Z,21.89
2018-10-17T07:20:46.810Z,22.08
2018-10-17T07:23:13.083Z,22.11
2018-10-17T07:25:39.236Z,22.12
2018-10-17T07:28:05.313Z,22.21
2018-10-17T07:30:31.575Z,22.36
2018-10-17T07:35:30.188Z,22.33
2018-10-17T07:37:57.361Z,22.48
2018-10-17T07:40:23.462Z,22.62
2018-10-17T07:42:49.678Z,22.74
2018-10-17T07:45:15.735Z,22.79
2018-10-17T07:47:41.849Z,22.86
2018-10-17T07:50:07.989Z,22.81
2018-10-17T07:52:35.080Z,22.93
2018-10-17T08:12:43.943Z,23.03
2018-10-17T08:15:10.077Z,23.04
2018-10-17T08:17:36.190Z,23.29
2018-10-17T08:20:02.325Z,23.50
2018-10-17T08:22:29.054Z,23.70
2018-10-17T08:24:57.365Z,23.90
2018-10-17T08:27:23.579Z,24.02
2018-10-17T08:29:49.723Z,24.14
2018-10-17T08:32:15.887Z,24.24
2018-10-17T08:34:42.076Z,24.21
2018-10-17T08:37:08.456Z,24.18
2018-10-17T08:39:34.393Z,24.08
2018-10-17T08:42:00.662Z,24.12
2018-10-17T08:44:26.808Z,24.19
2018-10-17T08:46:52.905Z,24.23
2018-10-17T08:49:19.098Z,24.31
2018-10-17T08:51:45.260Z,24.37
2018-10-17T08:54:11.445Z,24.42
2018-10-17T08:56:37.605Z,24.50
2018-10-17T08:59:03.766Z,24.58
2018-10-17T09:01:30.562Z,24.53
2018-10-17T09:03:57.502Z,24.52
2018-10-17T09:06:23.722Z,24.40
2018-10-17T09:08:50.130Z,24.37
2018-10-17T09:11:16.356Z,24.44
2018-10-17T09:46:30.211Z,24.64
2018-10-17T09:48:56.470Z,24.69
2018-10-17T09:51:23.605Z,24.71
2018-10-17T09:56:18.752Z,24.74
2018-10-17T09:58:44.939Z,24.73
2018-10-17T10:01:15.679Z,24.74
2018-10-17T10:03:44.569Z,24.74
2018-10-17T10:06:12.307Z,24.78
2018-10-17T10:08:38.502Z,24.82
2018-10-17T10:11:05.277Z,24.85
2018-10-17T10:16:12.106Z,24.82
2018-10-17T10:18:38.242Z,24.84
2018-10-17T10:21:04.361Z,24.87
2018-10-17T10:23:30.470Z,24.92
2018-10-17T10:25:56.527Z,24.93
2018-10-17T10:28:22.754Z,24.88
2018-10-17T10:30:48.723Z,24.81
2018-10-17T10:33:18.188Z,24.80
2018-10-17T10:35:44.352Z,24.81
2018-10-17T10:38:10.542Z,24.90
2018-10-17T10:40:36.654Z,24.90
2018-10-17T10:43:02.774Z,24.92
2018-10-17T10:45:28.973Z,24.90
2018-10-17T10:47:55.027Z,24.94
2018-10-17T10:50:21.133Z,24.97
2018-10-17T10:52:47.303Z,24.98
2018-10-17T10:55:13.555Z,25.00
2018-10-17T10:57:40.318Z,25.00
2018-10-17T11:00:06.506Z,25.01
2018-10-17T11:02:32.623Z,25.03
2018-10-17T11:05:00.881Z,25.08
2018-10-17T11:07:26.950Z,25.10
2018-10-17T11:09:53.066Z,25.10
2018-10-17T11:12:23.277Z,25.10
2018-10-17T11:14:49.567Z,25.07
2018-10-17T11:17:15.558Z,25.07
2018-10-17T11:19:41.638Z,25.11
2018-10-17T11:22:07.757Z,25.12
2018-10-17T11:24:33.838Z,25.13
2018-10-17T11:27:00.044Z,25.15
2018-10-17T11:29:26.153Z,25.19
2018-10-17T11:31:52.395Z,25.19
2018-10-17T11:34:18.451Z,25.21
2018-10-17T11:36:44.602Z,25.25
2018-10-17T11:39:10.774Z,25.27
2018-10-17T11:41:36.989Z,25.28
2018-10-17T11:44:03.065Z,25.29
2018-10-17T11:46:30.038Z,25.28
2018-10-17T11:48:56.150Z,25.28
2018-10-17T11:51:22.515Z,25.27
2018-10-17T11:53:48.591Z,25.28
2018-10-17T11:56:14.709Z,25.29
2018-10-17T11:58:42.038Z,25.34
2018-10-17T12:01:08.204Z,25.32
2018-10-17T12:03:35.250Z,25.34
2018-10-17T12:06:01.298Z,25.34
2018-10-17T12:08:27.377Z,25.33
2018-10-17T12:10:53.496Z,25.36
2018-10-17T12:13:19.614Z,25.41
2018-10-17T12:15:45.771Z,25.39
2018-10-17T12:18:11.914Z,25.44
2018-10-17T12:20:37.989Z,25.45
2018-10-17T12:23:04.173Z,25.47
2018-10-17T12:25:30.315Z,25.47
2018-10-17T12:27:56.576Z,25.46
2018-10-17T12:30:22.678Z,25.45
2018-10-17T12:40:23.263Z,25.43
2018-10-17T12:42:49.326Z,25.47
2018-10-17T12:45:15.612Z,25.48
2018-10-17T12:47:41.662Z,25.49
2018-10-17T12:50:07.814Z,25.51
2018-10-17T12:52:34.003Z,25.52
2018-10-17T12:55:00.119Z,25.54
2018-10-17T12:57:26.189Z,25.56
2018-10-17T12:59:52.293Z,25.55
2018-10-17T13:02:18.388Z,25.54
2018-10-17T13:04:44.542Z,25.54
2018-10-17T13:07:10.763Z,25.54
2018-10-17T13:09:36.923Z,25.56
2018-10-17T13:12:02.967Z,25.54
2018-10-17T13:14:29.042Z,25.56
2018-10-17T13:16:57.080Z,25.56
2018-10-17T13:19:23.173Z,25.55
2018-10-17T13:21:49.397Z,25.57
2018-10-17T13:24:15.443Z,25.59
2018-10-17T13:26:41.507Z,25.62
2018-10-17T13:29:07.678Z,25.63
2018-10-17T13:31:33.862Z,25.64
2018-10-17T13:34:00.063Z,25.65
2018-10-17T13:36:26.224Z,25.65
2018-10-17T14:04:05.119Z,25.55
2018-10-17T14:06:31.266Z,25.60
2018-10-17T14:08:58.066Z,25.61
2018-10-17T14:11:26.321Z,25.65
2018-10-17T14:13:52.486Z,25.67
2018-10-17T14:16:18.816Z,25.67
2018-10-17T14:18:45.052Z,25.67
2018-10-17T14:21:11.339Z,25.68
2018-10-17T14:23:37.687Z,25.68
2018-10-17T14:26:03.741Z,25.69
2018-10-17T14:28:29.860Z,25.69
2018-10-17T14:30:56.898Z,25.71
2018-10-17T14:33:23.262Z,25.70
2018-10-17T14:35:49.392Z,25.74
2018-10-17T14:38:15.544Z,25.73
2018-10-17T14:40:41.834Z,25.72
2018-10-17T14:43:07.863Z,25.70
2018-10-17T14:45:34.374Z,25.71
2018-10-17T14:48:00.559Z,25.71
2018-10-17T14:50:26.708Z,25.70
2018-10-17T14:52:52.859Z,25.71
2018-10-17T14:55:19.053Z,25.72
2018-10-17T14:57:45.237Z,25.73
2018-10-17T15:00:11.419Z,25.73
2018-10-17T15:02:37.517Z,25.72
2018-10-17T15:05:04.565Z,25.73
2018-10-17T15:07:31.562Z,25.73
2018-10-17T15:09:58.129Z,25.73
2018-10-17T15:12:24.299Z,25.72
2018-10-17T15:14:50.700Z,25.72
2018-10-17T15:17:16.825Z,25.72
2018-10-17T15:19:42.955Z,25.71
2018-10-17T15:22:09.749Z,25.70
2018-10-17T15:24:35.947Z,25.70
2018-10-17T15:27:02.970Z,25.68
2018-10-17T15:29:29.020Z,25.68
2018-10-17T15:31:55.238Z,25.70
2018-10-17T15:34:21.293Z,25.69
2018-10-17T15:36:47.359Z,25.69
2018-10-17T15:39:13.518Z,25.68
2018-10-17T15:41:39.587Z,25.68
2018-10-17T15:44:05.674Z,25.68
2018-10-17T15:46:31.742Z,25.68
2018-10-17T15:48:57.843Z,25.68
2018-10-17T15:51:23.895Z,25.66
2018-10-17T15:53:50.042Z,25.66
2018-10-17T15:56:16.190Z,25.67
2018-10-17T15:58:42.317Z,25.65
2018-10-17T16:01:08.546Z,25.63
2018-10-17T16:03:34.566Z,25.59
2018-10-17T16:06:00.644Z,25.55
2018-10-17T16:08:26.800Z,25.53
2018-10-17T16:10:52.872Z,25.54
2018-10-17T16:13:18.981Z,25.54
2018-10-17T16:15:45.207Z,25.52
2018-10-17T16:18:11.568Z,25.45
2018-10-17T16:20:37.831Z,25.41
2018-10-17T16:23:04.108Z,25.32
2018-10-17T16:25:30.114Z,25.28
2018-10-17T16:30:28.669Z,24.87
2018-10-17T16:32:54.793Z,24.61
2018-10-17T16:35:20.945Z,24.48
2018-10-17T16:37:47.086Z,24.36
2018-10-17T16:40:13.186Z,24.33
2018-10-17T16:42:39.400Z,24.38
2018-10-17T16:45:05.491Z,24.33
2018-10-17T16:47:31.679Z,24.38
2018-10-17T16:49:57.735Z,24.26
2018-10-17T16:52:23.834Z,24.06
2018-10-17T16:54:50.110Z,24.00
2018-10-17T16:57:16.306Z,24.10
2018-10-17T16:59:42.379Z,24.16
2018-10-17T17:02:08.448Z,24.20
2018-10-17T17:04:34.630Z,24.09
2018-10-17T17:07:01.483Z,23.98
2018-10-17T17:12:01.224Z,23.62
2018-10-17T17:14:27.454Z,23.53
2018-10-17T17:16:53.468Z,23.48
2018-10-17T17:21:51.939Z,23.63
2018-10-17T17:24:18.098Z,23.55
2018-10-17T17:26:44.917Z,23.45
2018-10-17T17:29:11.229Z,23.32
2018-10-17T17:31:37.509Z,23.35
2018-10-17T17:34:03.888Z,23.44
2018-10-17T17:36:30.819Z,23.37
2018-10-17T17:38:59.210Z,23.36
2018-10-17T17:41:28.248Z,23.39
2018-10-17T17:43:55.294Z,23.32
2018-10-17T17:46:25.672Z,23.19
2018-10-17T17:48:51.922Z,23.07
2018-10-17T17:51:18.083Z,23.02
2018-10-17T17:53:44.235Z,23.03
2018-10-17T17:56:10.312Z,22.89
2018-10-17T17:58:36.738Z,22.77
2018-10-17T18:01:02.631Z,22.63
2018-10-17T18:03:28.717Z,22.59
2018-10-17T18:05:54.932Z,22.59
2018-10-17T18:08:22.267Z,22.56
2018-10-17T18:10:48.347Z,22.51
2018-10-17T18:13:14.521Z,22.41
2018-10-17T18:15:40.647Z,22.30
2018-10-17T18:18:06.767Z,22.35
2018-10-17T18:20:32.887Z,22.42
2018-10-17T18:22:59.015Z,22.41
2018-10-17T18:25:26.055Z,22.37
2018-10-17T18:27:52.237Z,22.29
2018-10-17T18:30:18.234Z,22.15
2018-10-17T18:32:44.300Z,22.01
2018-10-17T18:40:13.666Z,21.95
2018-10-17T18:42:39.793Z,22.00
2018-10-17T18:45:05.845Z,22.03
2018-10-17T18:52:35.091Z,21.76
2018-10-17T18:55:01.265Z,21.75
2018-10-17T18:57:27.350Z,21.78
2018-10-17T18:59:53.478Z,21.90
2018-10-17T19:02:19.550Z,21.90
2018-10-17T19:04:45.775Z,21.84
2018-10-17T19:07:11.887Z,21.83
2018-10-17T19:09:38.007Z,21.97
2018-10-17T19:12:04.099Z,21.88
2018-10-17T19:14:30.177Z,21.89
2018-10-17T19:16:56.380Z,21.79
2018-10-17T19:19:22.508Z,21.75
2018-10-17T19:21:48.581Z,21.76
2018-10-17T19:24:14.710Z,21.82
2018-10-17T19:26:41.040Z,21.68
2018-10-17T19:29:07.169Z,21.59
2018-10-17T19:31:33.251Z,21.49
2018-10-17T19:33:59.419Z,21.68
2018-10-17T19:36:25.489Z,21.69
2018-10-17T20:11:38.320Z,21.65
2018-10-17T20:14:04.465Z,21.53
2018-10-17T20:16:31.728Z,21.61
2018-10-17T20:18:57.832Z,21.58
2018-10-17T20:21:23.917Z,21.55
2018-10-17T20:23:50.199Z,21.46
2018-10-17T20:26:17.299Z,21.37
2018-10-17T20:28:43.369Z,21.44
2018-10-17T20:31:09.544Z,21.36
2018-10-17T20:33:35.819Z,21.42
2018-10-17T20:36:06.966Z,21.48
2018-10-17T20:38:33.204Z,21.42
2018-10-17T20:40:59.376Z,21.33
2018-10-17T20:43:25.567Z,21.39
2018-10-17T20:45:51.620Z,21.29
2018-10-17T20:48:17.862Z,21.26
2018-10-17T20:50:44.007Z,21.28
2018-10-17T20:53:10.122Z,21.24
2018-10-17T20:55:36.315Z,21.28
2018-10-17T20:58:02.377Z,21.28
2018-10-17T21:00:29.046Z,21.12
2018-10-17T21:02:55.159Z,20.99
2018-10-17T21:05:21.337Z,21.02
2018-10-17T21:07:47.462Z,21.06
2018-10-17T21:10:13.607Z,21.00
2018-10-17T21:12:39.640Z,20.94
2018-10-17T21:15:06.366Z,21.05
2018-10-17T21:17:32.556Z,21.05
2018-10-17T21:19:58.690Z,21.05
2018-10-17T21:22:24.770Z,21.04
2018-10-17T21:24:50.861Z,21.10
2018-10-17T21:27:16.913Z,21.07
2018-10-17T21:29:43.013Z,21.04
2018-10-17T21:32:09.129Z,21.00
2018-10-17T21:34:35.238Z,21.10
2018-10-17T21:37:01.317Z,21.15
2018-10-17T21:39:27.416Z,21.10
2018-10-17T21:41:53.527Z,20.95
2018-10-17T21:44:19.584Z,20.79
2018-10-17T21:46:45.645Z,20.83
2018-10-17T21:49:11.768Z,20.84
2018-10-17T21:51:37.870Z,20.78
2018-10-17T21:54:04.032Z,20.65
2018-10-17T21:56:30.154Z,20.60
2018-10-17T21:58:56.242Z,20.59
2018-10-17T22:01:22.339Z,20.66
2018-10-17T22:03:48.435Z,20.43
2018-10-17T22:06:14.549Z,20.53
2018-10-17T22:08:40.711Z,20.52
2018-10-17T22:11:06.807Z,20.53
2018-10-17T22:13:32.905Z,20.47
2018-10-17T22:15:59.061Z,20.53
2018-10-17T22:18:25.867Z,20.56
2018-10-17T22:20:51.954Z,20.54
2018-10-17T22:23:18.052Z,20.51
2018-10-17T22:25:44.142Z,20.48
2018-10-17T22:28:10.284Z,20.45
2018-10-17T22:30:36.365Z,20.28
2018-10-17T22:33:02.437Z,20.20
2018-10-17T22:35:28.488Z,20.23
2018-10-17T22:37:54.604Z,20.18
2018-10-17T22:40:20.681Z,20.08
2018-10-17T22:42:46.757Z,20.10
2018-10-17T22:45:12.804Z,20.10
2018-10-17T22:47:38.836Z,20.08
2018-10-17T22:50:05.097Z,20.05
2018-10-17T22:52:31.114Z,20.07
2018-10-17T22:54:57.204Z,20.03
2018-10-17T22:57:23.246Z,20.10
2018-10-17T22:59:49.406Z,20.02
2018-10-17T23:02:15.553Z,19.92
2018-10-17T23:04:41.605Z,20.06
2018-10-17T23:07:07.815Z,19.99
2018-10-17T23:09:33.853Z,19.92
2018-10-17T23:11:59.954Z,19.82
2018-10-17T23:14:26.078Z,19.68
2018-10-17T23:16:52.216Z,19.66
2018-10-17T23:19:18.297Z,19.64
2018-10-17T23:21:44.362Z,19.45
2018-10-17T23:24:10.373Z,19.51
2018-10-17T23:26:36.429Z,19.47
2018-10-17T23:29:02.479Z,19.49
2018-10-17T23:31:28.592Z,19.48
2018-10-17T23:33:54.638Z,19.55
2018-10-17T23:36:20.713Z,19.65
2018-10-17T23:38:46.797Z,19.54
2018-10-17T23:41:12.865Z,19.41
2018-10-17T23:43:38.945Z,19.42
2018-10-17T23:46:05.052Z,19.53
2018-10-17T23:48:31.218Z,19.60
2018-10-17T23:50:57.302Z,19.44
2018-10-17T23:53:23.420Z,19.46
2018-10-17T23:55:49.529Z,19.48
2018-10-17T23:58:15.611Z,19.43
